South New Berlin, NY (13843)

5:05 AM EDT on October 01, 2016 (GMT -0400)
Home Acres Farm | | Change Station

Elev 1424 ft 42.49 °N, 75.34 °W | Updated 23 seconds ago

Fog
Fog
47.5 °F
Feels Like 48 °F
N
0.0
Wind Variable Wind from WSW
Gusts 0.0 mph

Today
High -- | Low -- °F
--% Chance of Precip.
Yesterday
High -- | Low -- °F
Precip. -- in
Pressure 30.24 in
Visibility 0.2 miles
Clouds
Windchill 48 °F
Dew Point 32 °F
Humidity 54%
Rainfall 0.00 in
Snow Depth Not available.
6:59 AM 6:41 PM
New Moon, 0% visible
METAR KBGM 010853Z 08006KT 1/4SM FG VV002 09/09 A3022 RMK AO2 SLP239 T00890089 58010
Pressure 30.24 in
Visibility 0.2 miles
Clouds
Windchill 48 °F
Dew Point 32 °F
Humidity 54%
Rainfall 0.00 in
Snow Depth Not available.
6:59 AM 6:41 PM
New Moon, 0% visible
METAR KBGM 010853Z 08006KT 1/4SM FG VV002 09/09 A3022 RMK AO2 SLP239 T00890089 58010

10-Day Weather Forecast

Almanac

Astronomy

Oct. 01, 2016 Rise Set
Actual Time
Civil Twilight
Nautical Twilight
Astronomical Twilight
Moon
Length of Visible Light
Length of Day
Tomorrow will be .
, % of the Moon is Illuminated

Today's Extremes

State Highs State Lows

Community

WunderPhotos

Upload Photos

1,942,898 photos uploaded!

WunderBlog® & News

Nearby

Air Quality

  Air Quality AQ Index Pollutant
Not available.

Snow Depth

Station Depth Elevation

Earthquake Activity

City Distance Mag. Time & Date
Minimum magnitude displayed is 2.5.

Coastal Water Temperatures

Place Temperature

Stations

Nearby Weather Stations

Station Location Temp. Windchill Dew Point Humidity Wind Precip. Elev Updated Type
                   

Watches & Warnings

There are currently no watches in effect.